createdAt,value
2022-08-26T00:00:01.471Z,24.8
2022-08-26T00:10:01.538Z,25.0
2022-08-26T00:15:01.531Z,24.6
2022-08-26T00:20:01.439Z,28.0
2022-08-26T00:25:01.512Z,27.5
2022-08-26T00:30:01.749Z,27.8
2022-08-26T00:35:02.169Z,27.6
2022-08-26T00:40:05.925Z,27.9
2022-08-26T00:45:01.564Z,24.2
2022-08-26T00:50:01.433Z,24.8
2022-08-26T00:55:03.409Z,24.8
2022-08-26T01:00:01.511Z,25.1
2022-08-26T01:05:04.257Z,24.7
2022-08-26T01:10:02.790Z,24.3
2022-08-26T01:15:01.890Z,24.6
2022-08-26T01:25:04.068Z,24.2
2022-08-26T01:30:02.673Z,23.9
2022-08-26T01:35:01.611Z,24.4
2022-08-26T01:40:01.753Z,25.0
2022-08-26T01:45:02.275Z,24.6
2022-08-26T01:50:03.414Z,24.8
2022-08-26T01:55:01.564Z,25.0
2022-08-26T02:00:06.967Z,24.7
2022-08-26T02:10:01.502Z,24.6
2022-08-26T02:15:05.945Z,24.9
2022-08-26T02:20:02.192Z,24.5
2022-08-26T02:25:02.671Z,24.0
2022-08-26T02:45:01.739Z,24.4
2022-08-26T02:50:01.495Z,23.8
2022-08-26T02:55:02.655Z,24.6
2022-08-26T03:00:01.682Z,26.8
2022-08-26T03:05:02.764Z,26.2
2022-08-26T03:10:09.135Z,25.7
2022-08-26T03:15:02.000Z,25.6
2022-08-26T03:20:06.557Z,25.2
2022-08-26T03:25:04.082Z,23.2
2022-08-26T03:30:01.593Z,22.8
2022-08-26T03:40:01.668Z,22.5
2022-08-26T03:45:01.649Z,24.6
2022-08-26T03:50:01.447Z,25.0
2022-08-26T03:55:03.267Z,26.0
2022-08-26T04:00:01.442Z,26.2
2022-08-26T04:05:01.749Z,26.0
2022-08-26T04:10:01.485Z,23.4
2022-08-26T04:15:03.537Z,22.9
2022-08-26T04:20:02.114Z,21.9
2022-08-26T04:25:01.544Z,21.9
2022-08-26T04:30:01.502Z,22.6
2022-08-26T04:35:04.744Z,23.3
2022-08-26T04:40:02.176Z,23.7
2022-08-26T04:50:02.750Z,23.9
2022-08-26T04:55:09.003Z,24.9
2022-08-26T05:00:03.014Z,24.7
2022-08-26T05:05:01.507Z,24.2
2022-08-26T05:10:01.451Z,23.8
2022-08-26T05:15:03.468Z,23.5
2022-08-26T05:20:02.256Z,22.5
2022-08-26T05:25:02.186Z,22.5
2022-08-26T05:35:01.921Z,22.3
2022-08-26T05:40:02.281Z,26.8
2022-08-26T05:45:03.203Z,27.0
2022-08-26T05:50:01.744Z,27.2
2022-08-26T06:00:01.469Z,27.4
2022-08-26T06:05:02.194Z,23.5
2022-08-26T06:15:04.394Z,24.8
2022-08-26T06:20:01.979Z,25.3
2022-08-26T06:25:02.334Z,27.7
2022-08-26T06:30:02.173Z,27.8
2022-08-26T06:35:01.902Z,28.1
2022-08-26T06:40:04.137Z,28.0
2022-08-26T06:45:03.393Z,28.4
2022-08-26T06:55:02.347Z,26.8
2022-08-26T07:00:01.928Z,27.0
2022-08-26T07:05:01.983Z,27.0
2022-08-26T07:10:02.448Z,27.3
2022-08-26T07:15:06.734Z,27.6
2022-08-26T07:35:02.037Z,29.6
2022-08-26T07:40:02.625Z,28.9
2022-08-26T07:45:02.251Z,28.9
2022-08-26T07:50:03.278Z,29.2
2022-08-26T07:55:02.587Z,29.6
2022-08-26T08:00:07.125Z,29.6
2022-08-26T08:05:03.858Z,30.0
2022-08-26T08:10:11.784Z,30.2
2022-08-26T08:15:07.304Z,30.1
2022-08-26T08:20:01.869Z,29.9
2022-08-26T08:25:13.501Z,29.9
2022-08-26T08:30:02.107Z,29.9
2022-08-26T08:35:16.474Z,29.7
2022-08-26T08:40:02.134Z,29.6
2022-08-26T08:45:01.915Z,29.6
2022-08-26T08:50:07.088Z,29.5
2022-08-26T08:55:01.991Z,29.3
2022-08-26T09:00:01.823Z,29.4
2022-08-26T09:05:02.035Z,29.5
2022-08-26T09:10:06.882Z,29.3
2022-08-26T09:25:04.211Z,28.0
2022-08-26T09:30:03.653Z,28.5
2022-08-26T09:35:02.056Z,28.9
2022-08-26T09:55:08.895Z,30.0
2022-08-26T10:00:03.058Z,30.3
2022-08-26T10:15:01.873Z,30.4
2022-08-26T10:20:08.030Z,31.0
2022-08-26T10:25:04.019Z,30.7
2022-08-26T10:30:01.714Z,30.6
2022-08-26T10:35:01.866Z,30.4
2022-08-26T10:45:02.720Z,30.1
2022-08-26T10:50:04.039Z,30.0
2022-08-26T10:55:03.410Z,30.0
2022-08-26T11:15:05.397Z,31.0
2022-08-26T11:20:14.669Z,31.1
2022-08-26T11:35:07.246Z,31.4
2022-08-26T11:40:04.201Z,31.0
2022-08-26T11:45:07.159Z,30.2
2022-08-26T12:05:01.289Z,31.2
2022-08-26T12:10:02.959Z,31.1
2022-08-26T12:15:03.858Z,31.1
2022-08-26T12:20:07.046Z,31.3
2022-08-26T12:35:01.882Z,31.0
2022-08-26T12:40:03.766Z,31.2
2022-08-26T13:15:01.430Z,29.8
2022-08-26T13:20:05.466Z,30.3
2022-08-26T13:25:01.359Z,30.0
2022-08-26T13:35:06.319Z,30.1
2022-08-26T13:40:01.620Z,29.9
2022-08-26T13:50:01.242Z,30.1
2022-08-26T13:55:01.360Z,29.9
2022-08-26T14:00:01.327Z,30.1
2022-08-26T14:05:01.709Z,30.5
2022-08-26T14:10:01.271Z,30.7
2022-08-26T14:15:01.335Z,30.5
2022-08-26T14:20:01.324Z,30.5
2022-08-26T14:25:01.456Z,29.6
2022-08-26T14:30:01.636Z,29.6
2022-08-26T14:35:01.373Z,29.4
2022-08-26T14:40:01.578Z,29.4
2022-08-26T14:50:01.755Z,30.0
2022-08-26T14:55:01.410Z,29.8
2022-08-26T15:00:01.319Z,29.8
2022-08-26T15:05:01.450Z,29.7
2022-08-26T15:10:01.320Z,29.4
2022-08-26T15:15:01.451Z,29.4
2022-08-26T15:20:01.592Z,29.4
2022-08-26T15:25:01.339Z,29.2
2022-08-26T15:30:01.272Z,29.2
2022-08-26T15:35:14.575Z,29.0
2022-08-26T15:40:01.701Z,29.0
2022-08-26T15:50:01.312Z,28.4
2022-08-26T16:00:01.298Z,27.8
2022-08-26T16:05:01.315Z,27.6
2022-08-26T16:10:02.049Z,27.6
2022-08-26T16:15:01.403Z,27.6
2022-08-26T16:20:01.565Z,27.4
2022-08-26T16:25:06.373Z,27.6
2022-08-26T16:30:01.622Z,27.7
2022-08-26T16:35:01.371Z,27.8
2022-08-26T16:40:06.832Z,28.3
2022-08-26T16:45:01.311Z,29.3
2022-08-26T16:50:01.371Z,29.7
2022-08-26T16:55:06.375Z,29.8
2022-08-26T17:00:06.430Z,29.8
2022-08-26T17:05:02.602Z,30.5
2022-08-26T17:10:01.569Z,29.9
2022-08-26T17:15:07.001Z,29.4
2022-08-26T17:20:01.353Z,29.0
2022-08-26T17:25:06.363Z,28.7
2022-08-26T17:30:01.285Z,27.4
2022-08-26T17:35:06.482Z,27.2
2022-08-26T17:40:01.919Z,27.1
2022-08-26T17:45:02.464Z,27.1
2022-08-26T17:50:03.845Z,28.0
2022-08-26T17:55:01.331Z,28.0
2022-08-26T18:00:06.268Z,28.0
2022-08-26T18:15:06.954Z,26.1
2022-08-26T18:20:01.355Z,25.8
2022-08-26T18:25:06.317Z,26.0
2022-08-26T18:30:14.668Z,26.4
2022-08-26T18:40:01.958Z,26.8
2022-08-26T18:45:06.402Z,27.2
2022-08-26T18:50:02.492Z,27.2
2022-08-26T18:55:03.575Z,27.3
2022-08-26T19:00:01.306Z,27.6
2022-08-26T19:05:01.647Z,27.5
2022-08-26T19:10:05.697Z,27.3
2022-08-26T19:15:01.766Z,27.4
2022-08-26T19:25:01.306Z,27.0
2022-08-26T19:30:02.489Z,27.1
2022-08-26T19:40:01.626Z,27.2
2022-08-26T19:45:06.445Z,28.3
2022-08-26T19:50:03.646Z,28.1
2022-08-26T20:00:06.414Z,28.0
2022-08-26T20:10:01.657Z,26.9
2022-08-26T20:15:02.437Z,27.1
2022-08-26T20:20:02.447Z,27.0
2022-08-26T20:25:01.342Z,27.0
2022-08-26T20:30:02.102Z,28.1
2022-08-26T20:35:06.490Z,27.9
2022-08-26T20:40:01.581Z,27.8
2022-08-26T20:45:02.029Z,28.0
2022-08-26T20:50:01.639Z,28.0
2022-08-26T20:55:01.333Z,26.6
2022-08-26T21:00:01.307Z,26.4
2022-08-26T21:05:01.808Z,26.1
2022-08-26T21:10:01.289Z,26.0
2022-08-26T21:15:01.390Z,25.7
2022-08-26T21:20:01.284Z,25.6
2022-08-26T21:25:01.782Z,25.8
2022-08-26T21:30:01.607Z,26.2
2022-08-26T21:35:02.524Z,26.0
2022-08-26T21:40:01.931Z,25.9
2022-08-26T21:50:01.289Z,25.6
2022-08-26T21:55:08.897Z,25.4
2022-08-26T22:00:05.149Z,25.4
2022-08-26T22:05:01.438Z,25.7
2022-08-26T22:10:07.402Z,25.8
2022-08-26T22:15:11.435Z,26.2
2022-08-26T22:20:01.302Z,26.4
2022-08-26T22:25:01.473Z,26.6
2022-08-26T22:45:02.375Z,26.0
2022-08-26T22:50:08.588Z,27.1
2022-08-26T22:55:01.835Z,27.3
2022-08-26T23:00:01.889Z,27.3
2022-08-26T23:05:01.770Z,27.2
2022-08-26T23:10:06.740Z,27.6
2022-08-26T23:15:06.753Z,27.6
2022-08-26T23:20:01.687Z,27.5
2022-08-26T23:25:08.097Z,27.5
2022-08-26T23:30:01.679Z,27.6
2022-08-26T23:35:07.472Z,27.5
2022-08-26T23:55:01.488Z,28.0
